Time;durP1;ratioP1;P1;durP2;ratioP2;P2;SDS_P1;SDS_P2;PMS_P1;PMS_P2;Temp;Humidity;BMP_temperature;BMP_pressure;BME280_temperature;BME280_humidity;BME280_pressure;Samples;Min_cycle;Max_cycle;Signal;HPM_P1;HPM_P2
2023/07/28 00:02:04;;;;;;;7.68;3.33;;;16.40;99.90;;;;;;5016601;28;20462;-60
2023/07/28 00:04:30;;;;;;;7.35;3.15;;;16.40;99.90;;;;;;5018581;28;20099;-58
2023/07/28 00:06:55;;;;;;;4.07;2.88;;;16.40;99.90;;;;;;5020656;28;20030;-59
2023/07/28 00:09:23;;;;;;;15.77;3.20;;;16.40;99.90;;;;;;5022519;28;20088;-61
2023/07/28 00:11:48;;;;;;;4.78;2.25;;;16.40;99.90;;;;;;5019199;28;20091;-57
2023/07/28 00:14:14;;;;;;;4.18;2.58;;;16.40;99.90;;;;;;5019965;28;20423;-58
2023/07/28 00:16:40;;;;;;;7.35;2.80;;;16.40;99.90;;;;;;5021945;28;20481;-61
2023/07/28 00:19:06;;;;;;;8.05;2.30;;;16.40;99.90;;;;;;5017133;28;20195;-58
2023/07/28 00:21:31;;;;;;;5.30;2.05;;;16.40;99.90;;;;;;5018633;28;20634;-59
2023/07/28 00:23:57;;;;;;;4.63;2.50;;;16.40;99.90;;;;;;5021689;28;20079;-60
2023/07/28 00:26:23;;;;;;;6.40;2.45;;;16.40;99.90;;;;;;5019314;28;20017;-58
2023/07/28 00:28:48;;;;;;;3.08;2.05;;;16.40;99.90;;;;;;5019018;28;20061;-58
2023/07/28 00:31:14;;;;;;;3.92;2.38;;;16.40;99.90;;;;;;5017773;28;20529;-58
2023/07/28 00:33:39;;;;;;;13.80;3.70;;;16.40;99.90;;;;;;5017037;28;20072;-59
2023/07/28 00:36:05;;;;;;;3.75;2.17;;;16.40;99.90;;;;;;5017173;28;20120;-59
2023/07/28 00:38:31;;;;;;;4.88;2.60;;;16.40;99.90;;;;;;5020171;28;20030;-58
2023/07/28 00:40:57;;;;;;;7.50;3.10;;;16.40;99.90;;;;;;5019564;28;20030;-59
2023/07/28 00:43:23;;;;;;;4.20;2.33;;;16.40;99.90;;;;;;5018059;28;20044;-58
2023/07/28 00:45:49;;;;;;;8.07;2.70;;;16.40;99.90;;;;;;5015984;28;20116;-59
2023/07/28 00:48:16;;;;;;;5.15;2.28;;;16.40;99.90;;;;;;5016943;28;20030;-60
2023/07/28 00:50:45;;;;;;;9.05;2.95;;;16.50;99.90;;;;;;5018212;28;20414;-58
2023/07/28 00:53:10;;;;;;;2.42;2.00;;;16.50;99.90;;;;;;5020012;28;20017;-59
2023/07/28 00:55:37;;;;;;;3.53;2.55;;;16.50;99.90;;;;;;5019840;28;20029;-58
2023/07/28 00:58:03;;;;;;;2.75;2.30;;;16.50;99.90;;;;;;5018739;28;20096;-58
2023/07/28 01:00:28;;;;;;;8.27;2.97;;;16.40;99.90;;;;;;5018693;28;20447;-59
2023/07/28 01:02:55;;;;;;;16.38;3.40;;;16.40;99.90;;;;;;5017733;28;20455;-59
2023/07/28 01:05:25;;;;;;;2.92;2.55;;;16.50;99.90;;;;;;5017848;28;20449;-59
2023/07/28 01:08:13;;;;;;;10.60;3.45;;;16.50;99.90;;;;;;5015523;28;20498;-59
2023/07/28 01:10:39;;;;;;;5.75;2.92;;;16.50;99.90;;;;;;5015195;28;20036;-58
2023/07/28 01:13:05;;;;;;;6.13;2.90;;;16.50;99.90;;;;;;5016285;28;20026;-59
2023/07/28 01:15:30;;;;;;;8.27;3.63;;;16.50;99.90;;;;;;5017489;28;20125;-59
2023/07/28 01:17:56;;;;;;;3.38;2.95;;;16.50;99.90;;;;;;5019397;28;20032;-59
2023/07/28 01:20:28;;;;;;;6.10;3.33;;;16.50;99.90;;;;;;5020469;28;20743;-58
2023/07/28 01:23:16;;;;;;;2.97;2.65;;;16.40;99.90;;;;;;5013943;28;20474;-59
2023/07/28 01:26:05;;;;;;;21.25;3.70;;;16.50;99.90;;;;;;5013527;28;20033;-58
2023/07/28 01:28:34;;;;;;;3.40;2.72;;;16.50;99.90;;;;;;5019015;28;20030;-59
2023/07/28 01:31:02;;;;;;;15.20;3.33;;;16.50;99.90;;;;;;5018506;28;20018;-59
2023/07/28 01:33:27;;;;;;;10.10;2.50;;;16.50;99.90;;;;;;5019653;28;20540;-58
2023/07/28 01:35:53;;;;;;;4.40;2.50;;;16.50;99.90;;;;;;5014305;28;20037;-59
2023/07/28 01:38:21;;;;;;;3.05;2.53;;;16.50;99.90;;;;;;5019527;28;20026;-59
2023/07/28 01:40:49;;;;;;;3.08;2.30;;;16.50;99.90;;;;;;5017315;28;20040;-60
2023/07/28 01:43:14;;;;;;;8.40;3.20;;;16.50;99.90;;;;;;5016237;28;20041;-59
2023/07/28 01:45:40;;;;;;;3.95;2.50;;;16.50;99.90;;;;;;5017932;28;20034;-58
2023/07/28 01:48:08;;;;;;;3.28;1.88;;;16.50;99.90;;;;;;5014140;28;20117;-56
2023/07/28 01:50:33;;;;;;;9.60;2.70;;;16.50;99.90;;;;;;5016062;28;20026;-58
2023/07/28 01:52:59;;;;;;;10.38;2.60;;;16.50;99.90;;;;;;5016309;28;20440;-58
2023/07/28 01:55:25;;;;;;;2.50;2.30;;;16.50;99.90;;;;;;5017247;28;20041;-59
2023/07/28 01:57:59;;;;;;;4.10;1.95;;;16.50;99.90;;;;;;5017087;28;20032;-59
2023/07/28 02:00:25;;;;;;;3.75;2.53;;;16.50;99.90;;;;;;5013802;28;20387;-59
2023/07/28 02:02:52;;;;;;;10.50;2.78;;;16.50;99.90;;;;;;5017513;28;20022;-59
2023/07/28 02:05:18;;;;;;;9.07;2.95;;;16.40;99.90;;;;;;5015884;28;20025;-57
2023/07/28 02:07:43;;;;;;;3.05;2.38;;;16.40;99.90;;;;;;5019933;28;20041;-58
2023/07/28 02:10:12;;;;;;;4.38;2.30;;;16.40;99.90;;;;;;5016697;28;20034;-58
2023/07/28 02:12:38;;;;;;;4.68;2.42;;;16.40;99.90;;;;;;5017623;28;20414;-60
2023/07/28 02:15:07;;;;;;;4.13;2.00;;;16.40;99.90;;;;;;5016125;28;20044;-57
2023/07/28 02:17:32;;;;;;;17.10;2.47;;;16.40;99.90;;;;;;5015588;28;20034;-59
2023/07/28 02:19:58;;;;;;;7.80;2.15;;;16.40;99.90;;;;;;5017760;28;20043;-58
2023/07/28 02:22:24;;;;;;;4.72;2.28;;;16.40;99.90;;;;;;5012509;28;20571;-59
2023/07/28 02:24:49;;;;;;;4.53;2.25;;;16.40;99.90;;;;;;5015071;28;20038;-58
2023/07/28 02:27:15;;;;;;;2.25;1.67;;;16.40;99.90;;;;;;5014687;28;20021;-57
2023/07/28 02:29:42;;;;;;;2.85;1.55;;;16.40;99.90;;;;;;5018135;28;20394;-58
2023/07/28 02:32:07;;;;;;;5.65;1.48;;;16.40;99.90;;;;;;5017577;28;20056;-60
2023/07/28 02:34:33;;;;;;;2.22;1.65;;;16.50;99.90;;;;;;5017462;28;20030;-59
2023/07/28 02:36:59;;;;;;;3.28;2.35;;;16.50;99.90;;;;;;5016515;28;20045;-58
2023/07/28 02:39:24;;;;;;;1.40;1.27;;;16.50;99.90;;;;;;5016476;28;20034;-59
2023/07/28 02:41:50;;;;;;;2.88;1.67;;;16.50;99.90;;;;;;5015335;28;20119;-60
2023/07/28 02:44:16;;;;;;;4.95;1.80;;;16.50;99.90;;;;;;5020351;28;20065;-59
2023/07/28 02:46:41;;;;;;;9.27;1.92;;;16.50;99.90;;;;;;5012837;28;20109;-60
2023/07/28 02:49:07;;;;;;;8.45;1.60;;;16.50;99.90;;;;;;5015823;28;20490;-60
2023/07/28 02:51:35;;;;;;;26.88;2.45;;;16.50;99.90;;;;;;5013299;28;20040;-58
2023/07/28 02:54:01;;;;;;;2.78;1.60;;;16.50;99.90;;;;;;5020859;28;20105;-58
2023/07/28 02:56:27;;;;;;;5.70;1.67;;;16.50;99.90;;;;;;5016293;28;20038;-58
2023/07/28 02:58:52;;;;;;;2.95;1.30;;;16.50;99.90;;;;;;5015219;28;20116;-59
2023/07/28 03:01:18;;;;;;;2.42;1.65;;;16.50;99.90;;;;;;5016180;28;20041;-58
2023/07/28 03:03:44;;;;;;;1.67;1.55;;;16.50;99.90;;;;;;5017429;28;20461;-58
2023/07/28 03:06:10;;;;;;;5.22;2.22;;;16.40;99.90;;;;;;5015394;28;20832;-58
2023/07/28 03:08:35;;;;;;;5.53;1.40;;;16.40;99.90;;;;;;5018332;28;20024;-58
2023/07/28 03:11:04;;;;;;;3.65;1.83;;;16.40;99.90;;;;;;5016771;28;20022;-60
2023/07/28 03:13:29;;;;;;;6.43;1.77;;;16.40;99.90;;;;;;5016131;28;20057;-58
2023/07/28 03:15:55;;;;;;;2.15;1.52;;;16.40;99.90;;;;;;5014929;28;20123;-58
2023/07/28 03:18:20;;;;;;;2.47;1.70;;;16.40;99.90;;;;;;5017577;28;20041;-59
2023/07/28 03:20:47;;;;;;;4.10;1.90;;;16.40;99.90;;;;;;5012419;28;20034;-58
2023/07/28 03:23:13;;;;;;;4.50;2.45;;;16.40;99.90;;;;;;5019222;28;20038;-59
2023/07/28 03:25:38;;;;;;;4.53;1.70;;;16.40;99.90;;;;;;5015771;28;20168;-59
2023/07/28 03:28:04;;;;;;;3.08;1.20;;;16.40;99.90;;;;;;5015504;28;20109;-59
2023/07/28 03:30:30;;;;;;;6.47;2.10;;;16.40;99.90;;;;;;5016733;28;20026;-59
2023/07/28 03:32:55;;;;;;;10.32;2.00;;;16.40;99.90;;;;;;5014807;28;20033;-60
2023/07/28 03:35:21;;;;;;;11.10;1.58;;;16.40;99.90;;;;;;5016327;28;20022;-60
2023/07/28 03:37:47;;;;;;;6.13;1.85;;;16.40;99.90;;;;;;5015634;28;20028;-58
2023/07/28 03:40:12;;;;;;;2.80;1.83;;;16.40;99.90;;;;;;5018871;28;20029;-59
2023/07/28 03:42:38;;;;;;;1.95;1.70;;;16.40;99.90;;;;;;5018777;28;20082;-60
2023/07/28 03:45:04;;;;;;;3.20;1.80;;;16.40;99.90;;;;;;5016096;28;20390;-60
2023/07/28 03:47:30;;;;;;;7.13;2.00;;;16.40;99.90;;;;;;5016460;28;20048;-61
2023/07/28 03:49:56;;;;;;;3.78;1.98;;;16.40;99.90;;;;;;5018392;28;20082;-60
2023/07/28 03:52:21;;;;;;;2.88;2.13;;;16.40;99.90;;;;;;5017588;28;20033;-60
2023/07/28 03:54:47;;;;;;;11.50;2.67;;;16.40;99.90;;;;;;5015537;28;20045;-58
2023/07/28 03:57:12;;;;;;;8.40;2.97;;;16.40;99.90;;;;;;5018171;28;20030;-60
2023/07/28 03:59:38;;;;;;;7.03;2.63;;;16.40;99.90;;;;;;5020411;28;20045;-59
2023/07/28 04:02:04;;;;;;;7.30;2.92;;;16.40;99.90;;;;;;5020142;28;20034;-60
2023/07/28 04:04:29;;;;;;;10.27;3.10;;;16.40;99.90;;;;;;5019961;28;20095;-59
2023/07/28 04:06:55;;;;;;;11.75;2.78;;;16.40;99.90;;;;;;5018087;28;20025;-60
2023/07/28 04:09:21;;;;;;;10.70;2.95;;;16.40;99.90;;;;;;5017803;28;20030;-61
2023/07/28 04:11:46;;;;;;;12.02;3.08;;;16.40;99.90;;;;;;5024902;28;20496;-60
2023/07/28 04:14:12;;;;;;;8.68;3.03;;;16.50;99.90;;;;;;5018032;28;20025;-59
2023/07/28 04:16:38;;;;;;;15.02;2.60;;;16.50;99.90;;;;;;5016321;28;20041;-59
2023/07/28 04:19:04;;;;;;;2.78;2.28;;;16.50;99.90;;;;;;5018939;28;20197;-58
2023/07/28 04:21:30;;;;;;;5.35;2.40;;;16.50;99.90;;;;;;5019352;28;20037;-59
2023/07/28 04:23:55;;;;;;;6.60;2.97;;;16.50;99.90;;;;;;5017506;28;20030;-60
2023/07/28 04:26:23;;;;;;;11.52;2.60;;;16.50;99.90;;;;;;5017606;28;20489;-60
2023/07/28 04:28:49;;;;;;;7.90;3.17;;;16.50;99.90;;;;;;5017202;28;20047;-58
2023/07/28 04:31:14;;;;;;;10.93;2.58;;;16.50;99.90;;;;;;5016640;28;20405;-60
2023/07/28 04:33:43;;;;;;;9.55;3.17;;;16.50;99.90;;;;;;5021935;28;20103;-59
2023/07/28 04:36:09;;;;;;;4.90;2.40;;;16.50;99.90;;;;;;5018023;28;20038;-60
2023/07/28 04:38:35;;;;;;;10.65;2.88;;;16.50;99.90;;;;;;5021963;28;20036;-59
2023/07/28 04:41:01;;;;;;;3.85;2.55;;;16.60;99.90;;;;;;5021043;28;20029;-59
2023/07/28 04:43:28;;;;;;;3.67;2.25;;;16.60;99.90;;;;;;5020141;28;20388;-60
2023/07/28 04:45:53;;;;;;;2.63;2.08;;;16.70;99.90;;;;;;5020792;28;20029;-61
2023/07/28 04:48:19;;;;;;;2.45;1.60;;;16.70;99.90;;;;;;5019727;28;20370;-59
2023/07/28 04:50:45;;;;;;;2.95;1.70;;;16.70;99.90;;;;;;5017385;28;20025;-59
2023/07/28 04:53:11;;;;;;;19.92;2.40;;;16.80;99.90;;;;;;5019519;28;20191;-59
2023/07/28 04:55:36;;;;;;;1.60;1.45;;;16.80;99.90;;;;;;5017472;28;20464;-59
2023/07/28 04:58:02;;;;;;;1.80;1.60;;;16.80;99.90;;;;;;5021039;28;20022;-59
2023/07/28 05:00:28;;;;;;;7.45;1.60;;;16.80;99.90;;;;;;5020055;28;20034;-59
2023/07/28 05:02:53;;;;;;;2.03;1.48;;;16.80;99.90;;;;;;5021482;28;20034;-57
2023/07/28 05:05:19;;;;;;;2.67;1.45;;;16.80;99.90;;;;;;5019707;28;20022;-59
2023/07/28 05:07:45;;;;;;;3.65;1.70;;;16.80;99.90;;;;;;5018618;28;20149;-60
2023/07/28 05:10:11;;;;;;;5.88;1.88;;;16.80;99.90;;;;;;5019502;28;20045;-60
2023/07/28 05:12:36;;;;;;;1.58;1.38;;;16.80;99.90;;;;;;5021066;28;20035;-59
2023/07/28 05:15:02;;;;;;;3.00;1.48;;;16.80;99.90;;;;;;5020059;28;20069;-59
2023/07/28 05:17:28;;;;;;;2.33;1.70;;;16.80;99.90;;;;;;5020712;28;20109;-58
2023/07/28 05:19:53;;;;;;;6.97;1.85;;;16.90;99.90;;;;;;5021050;28;20091;-59
2023/07/28 05:22:19;;;;;;;1.90;1.45;;;16.80;99.90;;;;;;5020963;28;20034;-58
2023/07/28 05:24:45;;;;;;;4.07;1.70;;;16.90;99.90;;;;;;5021233;28;20038;-59
2023/07/28 05:27:15;;;;;;;1.73;1.52;;;16.90;99.90;;;;;;5019335;28;20088;-60
2023/07/28 05:29:40;;;;;;;2.30;2.10;;;17.00;99.90;;;;;;5019793;28;20085;-58
2023/07/28 05:32:06;;;;;;;2.72;1.60;;;17.00;99.90;;;;;;5017707;28;20113;-58
2023/07/28 05:34:32;;;;;;;4.47;1.75;;;17.00;99.90;;;;;;5021411;28;20036;-58
2023/07/28 05:36:58;;;;;;;3.33;1.60;;;17.10;99.90;;;;;;5021232;28;20021;-58
2023/07/28 05:39:23;;;;;;;1.83;1.42;;;17.10;99.90;;;;;;5021147;28;20034;-60
2023/07/28 05:41:49;;;;;;;1.65;1.30;;;17.10;99.90;;;;;;5022830;28;20025;-59
2023/07/28 05:44:14;;;;;;;3.78;1.70;;;17.10;99.90;;;;;;5018856;28;20030;-58
2023/07/28 05:46:40;;;;;;;5.88;1.60;;;17.20;99.90;;;;;;5017914;28;20035;-59
2023/07/28 05:49:06;;;;;;;1.38;1.20;;;17.20;99.90;;;;;;5017242;28;20076;-58
2023/07/28 05:51:31;;;;;;;2.15;1.35;;;17.20;99.90;;;;;;5017547;28;20033;-60
2023/07/28 05:53:57;;;;;;;5.40;1.70;;;17.20;99.90;;;;;;5015008;28;20038;-58
2023/07/28 05:56:23;;;;;;;2.05;1.40;;;17.20;99.90;;;;;;5016580;28;20065;-59
2023/07/28 05:58:50;;;;;;;4.95;1.27;;;17.30;99.90;;;;;;5018282;28;20513;-58
2023/07/28 06:01:16;;;;;;;1.40;1.20;;;17.40;99.90;;;;;;5014807;28;20497;-60
2023/07/28 06:03:41;;;;;;;1.60;1.30;;;17.40;99.90;;;;;;5016461;28;20058;-59
2023/07/28 06:06:07;;;;;;;7.65;1.30;;;17.50;99.90;;;;;;5017565;28;20053;-59
2023/07/28 06:08:34;;;;;;;3.08;1.30;;;17.50;99.90;;;;;;5017335;28;20049;-56
2023/07/28 06:10:59;;;;;;;1.73;1.30;;;17.60;99.90;;;;;;5016781;28;20107;-59
2023/07/28 06:13:25;;;;;;;4.35;1.10;;;17.60;99.90;;;;;;5015352;28;20052;-58
2023/07/28 06:15:54;;;;;;;0.98;0.88;;;17.60;99.90;;;;;;5011436;28;20117;-59
2023/07/28 06:18:22;;;;;;;4.70;0.90;;;17.60;99.90;;;;;;5012705;28;20651;-59
2023/07/28 06:20:47;;;;;;;2.25;1.00;;;17.50;99.90;;;;;;5010415;28;20041;-58
2023/07/28 06:23:13;;;;;;;2.15;1.10;;;17.60;99.90;;;;;;5014517;28;20045;-59
2023/07/28 06:25:43;;;;;;;1.30;1.10;;;17.50;99.90;;;;;;5017352;28;20040;-59
2023/07/28 06:28:12;;;;;;;3.10;1.10;;;17.50;99.90;;;;;;5014732;28;20869;-58
2023/07/28 06:30:38;;;;;;;14.48;1.70;;;17.50;99.90;;;;;;5016211;28;20026;-59
2023/07/28 06:33:06;;;;;;;2.53;1.23;;;17.50;99.90;;;;;;5015284;28;20032;-60
2023/07/28 06:35:32;;;;;;;1.10;1.00;;;17.50;99.90;;;;;;5016415;28;20056;-59
2023/07/28 06:37:59;;;;;;;2.22;1.10;;;17.60;99.90;;;;;;5014772;28;20584;-58
2023/07/28 06:40:24;;;;;;;3.90;1.23;;;17.60;99.90;;;;;;5018105;28;20197;-60
2023/07/28 06:42:50;;;;;;;1.83;1.10;;;17.70;99.90;;;;;;5019951;28;20702;-60
2023/07/28 06:45:15;;;;;;;1.98;1.00;;;17.70;99.90;;;;;;5017172;28;20026;-59
2023/07/28 06:47:41;;;;;;;4.47;1.25;;;17.80;99.90;;;;;;5019231;28;20075;-58
2023/07/28 06:50:07;;;;;;;0.90;0.90;;;17.80;99.90;;;;;;5015865;28;20607;-59
2023/07/28 06:52:32;;;;;;;1.73;0.90;;;17.90;99.90;;;;;;5015862;28;20173;-58
2023/07/28 06:54:58;;;;;;;0.80;0.80;;;17.90;99.90;;;;;;5018333;28;20459;-59
2023/07/28 06:57:24;;;;;;;1.83;1.08;;;18.00;99.90;;;;;;5016588;28;20037;-60
2023/07/28 06:59:50;;;;;;;1.98;0.85;;;18.00;99.90;;;;;;5018120;28;22321;-59
2023/07/28 07:02:16;;;;;;;3.42;0.82;;;18.00;99.90;;;;;;5015746;28;20582;-58
2023/07/28 07:04:42;;;;;;;1.38;0.80;;;18.00;99.90;;;;;;5016361;28;20502;-58
2023/07/28 07:07:08;;;;;;;1.27;0.80;;;18.00;99.90;;;;;;5016798;28;20033;-58
2023/07/28 07:09:34;;;;;;;0.80;0.70;;;18.00;99.90;;;;;;5017192;28;20030;-59
2023/07/28 07:12:00;;;;;;;3.40;0.90;;;18.00;99.90;;;;;;5013774;28;20022;-59
2023/07/28 07:14:25;;;;;;;1.25;1.00;;;18.00;99.90;;;;;;5017478;28;20120;-60
2023/07/28 07:16:51;;;;;;;17.33;1.00;;;18.00;99.90;;;;;;5018590;28;20075;-59
2023/07/28 07:19:17;;;;;;;1.63;0.63;;;18.00;99.90;;;;;;5015703;28;20038;-58
2023/07/28 07:21:44;;;;;;;2.50;0.80;;;18.00;99.90;;;;;;5015249;28;20037;-59
2023/07/28 07:24:13;;;;;;;2.25;1.02;;;18.10;99.90;;;;;;5015349;28;20029;-58
2023/07/28 07:26:39;;;;;;;0.75;0.70;;;18.10;99.90;;;;;;5016090;28;20697;-58
2023/07/28 07:29:05;;;;;;;3.58;1.10;;;18.10;99.90;;;;;;5016695;28;20018;-59
2023/07/28 07:31:30;;;;;;;1.25;0.90;;;18.10;99.90;;;;;;5020152;28;20379;-60
2023/07/28 07:33:56;;;;;;;1.35;0.85;;;18.20;99.90;;;;;;5015345;28;20522;-61
2023/07/28 07:36:21;;;;;;;5.22;1.25;;;18.10;99.90;;;;;;5016957;28;20033;-59
2023/07/28 07:38:48;;;;;;;3.08;0.88;;;18.20;99.90;;;;;;5012292;28;20034;-60
2023/07/28 07:41:21;;;;;;;0.98;0.80;;;18.40;99.90;;;;;;5015485;28;20406;-59
2023/07/28 07:43:48;;;;;;;12.60;1.00;;;18.50;99.90;;;;;;5018390;28;20030;-58
2023/07/28 07:46:15;;;;;;;1.48;1.10;;;18.60;99.90;;;;;;5019248;28;20029;-59
2023/07/28 07:48:40;;;;;;;1.67;1.00;;;18.60;99.90;;;;;;5020169;28;20063;-60
2023/07/28 07:51:07;;;;;;;4.22;0.93;;;18.60;99.90;;;;;;5019886;28;20413;-58
2023/07/28 07:53:32;;;;;;;5.63;0.98;;;18.60;99.90;;;;;;5019144;28;20104;-59
2023/07/28 07:55:58;;;;;;;3.22;0.80;;;18.50;99.90;;;;;;5018185;28;20289;-59
2023/07/28 07:58:24;;;;;;;0.98;0.90;;;18.40;99.90;;;;;;5013046;28;20030;-58
2023/07/28 08:00:49;;;;;;;8.27;1.00;;;18.30;99.90;;;;;;5018466;28;20029;-59
2023/07/28 08:03:15;;;;;;;0.93;0.93;;;18.20;99.90;;;;;;5017696;28;20083;-58
2023/07/28 08:05:40;;;;;;;1.92;1.10;;;18.20;99.90;;;;;;5016671;28;20485;-61
2023/07/28 08:08:07;;;;;;;2.08;0.90;;;18.20;99.90;;;;;;5019740;28;20068;-59
2023/07/28 08:10:33;;;;;;;4.75;0.80;;;18.10;99.90;;;;;;5016573;28;20042;-58
2023/07/28 08:12:59;;;;;;;1.25;1.00;;;18.20;99.90;;;;;;5016977;28;20506;-59
2023/07/28 08:15:25;;;;;;;0.80;0.80;;;18.20;99.90;;;;;;5017553;28;20043;-60
2023/07/28 08:17:52;;;;;;;0.77;0.77;;;18.20;99.90;;;;;;5016032;28;20053;-59
2023/07/28 08:20:20;;;;;;;1.00;0.90;;;18.10;99.90;;;;;;5019086;28;20662;-61
2023/07/28 08:22:46;;;;;;;0.80;0.80;;;18.00;99.90;;;;;;5020177;28;20120;-58
2023/07/28 08:25:11;;;;;;;1.73;1.08;;;18.00;99.90;;;;;;5020109;28;20498;-58
2023/07/28 08:27:37;;;;;;;1.10;0.93;;;18.00;99.90;;;;;;5020016;28;20044;-59
2023/07/28 08:30:04;;;;;;;4.78;1.00;;;18.00;99.90;;;;;;5020999;28;20083;-57
2023/07/28 08:32:29;;;;;;;4.22;0.90;;;18.10;99.90;;;;;;5019765;28;20084;-60
2023/07/28 08:34:55;;;;;;;1.77;0.90;;;18.20;99.90;;;;;;5022961;28;20038;-60
2023/07/28 08:37:21;;;;;;;1.65;0.90;;;18.20;99.90;;;;;;5020970;28;20066;-59
2023/07/28 08:39:46;;;;;;;0.60;0.60;;;18.30;99.90;;;;;;5024122;28;20556;-58
2023/07/28 08:42:12;;;;;;;6.63;0.80;;;18.40;99.90;;;;;;5019011;28;20037;-58
2023/07/28 08:44:37;;;;;;;1.90;0.90;;;18.40;99.90;;;;;;5016367;28;20032;-60
2023/07/28 08:47:04;;;;;;;0.80;0.80;;;18.40;99.90;;;;;;5017686;28;20022;-60
2023/07/28 08:49:36;;;;;;;4.55;0.80;;;18.40;99.90;;;;;;5012695;28;20083;-60
2023/07/28 08:52:03;;;;;;;3.40;0.70;;;18.60;99.90;;;;;;5013002;28;20057;-60
2023/07/28 08:54:29;;;;;;;1.80;0.57;;;18.90;99.90;;;;;;5019800;28;20096;-61
2023/07/28 08:56:57;;;;;;;0.98;0.77;;;19.00;99.90;;;;;;5018251;28;20541;-61
2023/07/28 08:59:25;;;;;;;4.47;0.88;;;19.10;99.90;;;;;;5022001;28;20056;-60
2023/07/28 09:01:52;;;;;;;1.48;0.80;;;19.20;99.90;;;;;;5022324;28;20026;-59
2023/07/28 09:04:18;;;;;;;1.65;0.88;;;19.20;99.90;;;;;;5021536;28;20037;-60
2023/07/28 09:06:47;;;;;;;7.05;1.05;;;19.00;99.90;;;;;;5022854;28;20033;-60
2023/07/28 09:09:19;;;;;;;1.67;0.80;;;19.10;99.90;;;;;;5020301;28;20109;-61
2023/07/28 09:11:52;;;;;;;3.03;0.82;;;19.20;99.90;;;;;;5020436;28;20029;-60
2023/07/28 09:14:21;;;;;;;0.93;0.60;;;19.30;99.90;;;;;;5021646;28;20071;-61
2023/07/28 09:16:47;;;;;;;0.85;0.68;;;19.40;99.90;;;;;;5020314;28;20048;-60
2023/07/28 09:19:13;;;;;;;2.20;0.88;;;19.40;99.90;;;;;;5020369;28;20088;-60
2023/07/28 09:21:40;;;;;;;2.92;0.85;;;19.50;99.90;;;;;;5017870;28;20095;-60
2023/07/28 09:24:13;;;;;;;3.75;0.60;;;19.60;99.90;;;;;;5020382;28;20029;-61
2023/07/28 09:26:47;;;;;;;1.55;0.73;;;19.90;99.90;;;;;;5018652;28;20029;-59
2023/07/28 09:29:17;;;;;;;0.73;0.60;;;20.10;99.90;;;;;;5019852;28;20552;-60
2023/07/28 09:31:44;;;;;;;2.75;0.70;;;20.50;99.90;;;;;;5019349;28;20028;-61
2023/07/28 09:34:11;;;;;;;1.50;0.82;;;20.80;99.90;;;;;;5018118;28;20026;-60
2023/07/28 09:36:38;;;;;;;1.38;0.73;;;21.10;99.90;;;;;;5019320;28;20611;-59
2023/07/28 09:39:08;;;;;;;1.15;0.88;;;21.20;99.90;;;;;;5020670;28;20047;-60
2023/07/28 09:41:36;;;;;;;2.35;0.73;;;21.20;99.90;;;;;;5022702;28;20071;-59
2023/07/28 09:44:01;;;;;;;1.65;0.90;;;21.20;99.90;;;;;;5021672;28;20014;-60
2023/07/28 09:46:30;;;;;;;1.25;0.52;;;21.20;99.90;;;;;;5019704;28;20025;-60
2023/07/28 09:48:59;;;;;;;1.17;0.52;;;21.00;99.90;;;;;;5020089;28;20021;-59
2023/07/28 09:51:29;;;;;;;2.40;0.70;;;20.80;99.90;;;;;;5021459;28;20026;-59
2023/07/28 09:54:06;;;;;;;3.70;0.60;;;20.80;99.90;;;;;;5021979;28;20268;-60
2023/07/28 09:56:32;;;;;;;6.07;0.63;;;20.90;99.90;;;;;;5017557;28;20443;-61
2023/07/28 09:59:00;;;;;;;0.98;0.70;;;21.10;99.90;;;;;;5021783;28;20018;-60
2023/07/28 10:01:28;;;;;;;4.05;0.77;;;21.20;99.90;;;;;;5018316;28;20083;-59
2023/07/28 10:03:53;;;;;;;0.50;0.50;;;21.30;99.90;;;;;;5017919;28;20022;-58
2023/07/28 10:06:22;;;;;;;0.90;0.57;;;21.20;99.90;;;;;;5019299;28;20025;-58
2023/07/28 10:08:48;;;;;;;1.60;0.60;;;21.10;99.90;;;;;;5018045;28;20025;-59
2023/07/28 10:11:16;;;;;;;0.93;0.57;;;20.90;99.90;;;;;;5018196;28;20064;-59
2023/07/28 10:13:43;;;;;;;0.95;0.63;;;21.00;99.90;;;;;;5016213;28;20029;-58
2023/07/28 10:16:09;;;;;;;2.08;0.82;;;20.90;99.90;;;;;;5016415;28;20041;-59
2023/07/28 10:18:35;;;;;;;9.60;1.10;;;21.10;99.90;;;;;;5010628;28;20871;-60
2023/07/28 10:21:13;;;;;;;0.82;0.80;;;21.20;99.90;;;;;;5014938;28;20040;-59
2023/07/28 10:23:39;;;;;;;0.90;0.52;;;21.10;99.90;;;;;;5017941;28;20176;-59
2023/07/28 10:26:05;;;;;;;2.92;0.60;;;21.20;99.90;;;;;;5019205;28;20060;-59
2023/07/28 10:28:35;;;;;;;2.10;0.73;;;21.20;99.90;;;;;;5014979;28;20049;-60
2023/07/28 10:31:02;;;;;;;1.70;0.60;;;21.00;99.90;;;;;;5016505;28;20021;-59
2023/07/28 10:33:30;;;;;;;0.80;0.80;;;21.00;99.90;;;;;;5017484;28;20030;-59
2023/07/28 10:36:17;;;;;;;20.77;1.50;;;21.00;99.90;;;;;;5014960;28;20108;-60
2023/07/28 10:38:43;;;;;;;0.80;0.80;;;21.00;99.90;;;;;;5014767;28;20113;-60
2023/07/28 10:41:13;;;;;;;13.40;0.90;;;21.30;99.90;;;;;;5012496;28;20116;-60
2023/07/28 10:43:39;;;;;;;5.65;0.70;;;21.50;99.90;;;;;;5012749;28;20518;-60
2023/07/28 10:46:07;;;;;;;1.42;0.70;;;21.50;99.90;;;;;;5016681;28;20046;-59
2023/07/28 10:48:35;;;;;;;0.98;0.60;;;21.30;99.90;;;;;;5013504;28;20482;-58
2023/07/28 10:51:01;;;;;;;1.27;0.70;;;21.10;99.90;;;;;;5017452;28;20432;-60
2023/07/28 10:53:26;;;;;;;1.45;0.75;;;20.90;99.90;;;;;;5016145;28;20022;-60
2023/07/28 10:55:53;;;;;;;1.20;0.70;;;20.80;99.90;;;;;;5015714;28;20121;-60
2023/07/28 10:58:20;;;;;;;2.03;0.80;;;20.80;99.90;;;;;;5017886;28;20030;-59
2023/07/28 11:00:45;;;;;;;3.13;0.90;;;20.90;99.90;;;;;;5015783;28;20025;-59
2023/07/28 11:03:12;;;;;;;4.35;0.90;;;21.20;99.90;;;;;;5018795;28;20029;-61
2023/07/28 11:05:39;;;;;;;1.77;0.65;;;21.50;99.90;;;;;;5016232;28;20393;-60
2023/07/28 11:08:07;;;;;;;1.83;0.80;;;21.80;99.90;;;;;;5016345;28;20041;-61
2023/07/28 11:10:34;;;;;;;2.25;0.68;;;21.90;99.90;;;;;;5014733;28;20116;-60
2023/07/28 11:13:02;;;;;;;7.63;2.13;;;22.00;99.90;;;;;;5016071;28;20029;-60
2023/07/28 11:15:28;;;;;;;2.05;0.95;;;22.10;99.90;;;;;;5016083;28;20041;-60
2023/07/28 11:17:54;;;;;;;1.30;0.70;;;22.00;99.90;;;;;;5018867;28;20026;-60
2023/07/28 11:20:22;;;;;;;2.95;1.42;;;21.90;99.90;;;;;;5023079;28;20500;-60
2023/07/28 11:23:06;;;;;;;0.95;0.70;;;21.80;99.90;;;;;;5013845;28;20052;-60
2023/07/28 11:25:33;;;;;;;1.92;0.73;;;21.60;99.90;;;;;;5013299;28;20033;-60
2023/07/28 11:28:06;;;;;;;0.60;0.60;;;21.40;99.90;;;;;;5016581;28;20041;-60
2023/07/28 11:30:35;;;;;;;1.75;0.80;;;21.20;99.90;;;;;;5018539;28;20041;-60
2023/07/28 11:33:02;;;;;;;0.70;0.70;;;21.10;99.90;;;;;;5018217;28;20069;-60
2023/07/28 11:35:28;;;;;;;0.75;0.70;;;21.10;99.90;;;;;;5016604;28;20017;-60
2023/07/28 11:37:55;;;;;;;1.00;0.60;;;21.20;99.90;;;;;;5021099;28;20029;-60
2023/07/28 11:40:23;;;;;;;4.70;0.88;;;21.20;99.90;;;;;;5016723;28;20108;-59
2023/07/28 11:42:55;;;;;;;2.15;0.63;;;21.40;99.90;;;;;;5020132;28;20029;-59
2023/07/28 11:45:22;;;;;;;2.90;0.70;;;21.70;99.90;;;;;;5018558;28;20126;-61
2023/07/28 11:48:07;;;;;;;4.47;0.70;;;22.00;99.90;;;;;;5017876;28;20113;-60
2023/07/28 11:50:41;;;;;;;0.50;0.50;;;22.20;99.90;;;;;;5016134;28;20068;-58
2023/07/28 11:53:09;;;;;;;2.55;0.70;;;22.30;99.90;;;;;;5019169;28;20041;-59
2023/07/28 11:55:36;;;;;;;3.92;0.60;;;22.50;99.90;;;;;;5017364;28;20059;-59
2023/07/28 11:58:04;;;;;;;1.02;0.45;;;22.50;99.90;;;;;;5016851;28;20026;-60
2023/07/28 12:00:35;;;;;;;2.97;0.70;;;22.50;99.90;;;;;;5018487;28;20025;-60
2023/07/28 12:03:01;;;;;;;;;;;22.80;99.90;;;;;;5020262;28;20042;-61
2023/07/28 12:05:28;;;;;;;1.80;0.60;;;23.20;99.90;;;;;;5019659;28;20285;-59
2023/07/28 12:07:53;;;;;;;1.00;0.60;;;23.30;99.90;;;;;;5018026;28;20065;-59
2023/07/28 12:10:19;;;;;;;2.15;0.60;;;23.30;99.90;;;;;;5020083;28;20080;-59
2023/07/28 12:12:46;;;;;;;1.33;0.47;;;23.40;99.90;;;;;;5023498;28;20052;-60
2023/07/28 12:15:29;;;;;;;3.45;0.77;;;23.50;99.90;;;;;;5018152;28;20044;-58
2023/07/28 12:18:09;;;;;;;0.50;0.50;;;23.60;99.90;;;;;;5018614;28;20630;-58
2023/07/28 12:20:53;;;;;;;0.98;0.30;;;23.70;99.90;;;;;;5014133;28;20040;-59
2023/07/28 12:23:20;;;;;;;3.42;0.50;;;23.60;99.90;;;;;;5015383;28;20131;-59
2023/07/28 12:25:48;;;;;;;0.50;0.50;;;23.60;99.90;;;;;;5016267;28;20143;-58
2023/07/28 12:28:14;;;;;;;2.90;0.50;;;23.60;99.90;;;;;;5020792;28;20057;-60
2023/07/28 12:30:40;;;;;;;0.40;0.40;;;23.50;99.90;;;;;;5020206;28;20038;-60
2023/07/28 12:33:06;;;;;;;2.05;0.40;;;23.50;99.90;;;;;;5017597;28;20030;-60
2023/07/28 12:35:34;;;;;;;0.85;0.40;;;23.50;99.90;;;;;;5016647;28;20038;-58
2023/07/28 12:38:04;;;;;;;0.43;0.43;;;23.40;99.90;;;;;;5016790;28;20021;-60
2023/07/28 12:40:31;;;;;;;1.25;0.47;;;23.40;99.90;;;;;;5019293;28;20095;-58
2023/07/28 12:42:57;;;;;;;0.50;0.50;;;23.40;99.90;;;;;;5019566;28;20022;-58
2023/07/28 12:45:25;;;;;;;1.17;0.70;;;23.40;99.90;;;;;;5015962;28;20030;-59